Time;durP1;ratioP1;P1;durP2;ratioP2;P2;SDS_P1;SDS_P2;PMS_P1;PMS_P2;Temp;Humidity;BMP_temperature;BMP_pressure;BME280_temperature;BME280_humidity;BME280_pressure;Samples;Min_cycle;Max_cycle;Signal;HPM_P1;HPM_P2
2022/09/30 00:02:15;;;;;;;0.88;0.70;;;19.00;57.50;;;;;;5018768;28;20481;-63
2022/09/30 00:04:41;;;;;;;1.17;0.80;;;19.00;57.40;;;;;;5018303;28;20030;-63
2022/09/30 00:07:07;;;;;;;1.17;0.70;;;19.00;57.40;;;;;;5016474;28;20064;-63
2022/09/30 00:09:32;;;;;;;1.50;0.80;;;19.00;57.40;;;;;;5014343;28;20026;-62
2022/09/30 00:11:58;;;;;;;1.48;0.68;;;19.00;57.40;;;;;;5017223;28;20389;-62
2022/09/30 00:14:23;;;;;;;0.93;0.70;;;19.00;57.40;;;;;;5013420;28;20029;-63
2022/09/30 00:16:49;;;;;;;1.10;0.70;;;19.00;57.40;;;;;;5012167;28;20450;-63
2022/09/30 00:19:15;;;;;;;1.27;0.70;;;19.00;57.40;;;;;;5019248;28;20028;-63
2022/09/30 00:21:41;;;;;;;1.00;0.60;;;19.00;57.40;;;;;;5017600;28;20092;-63
2022/09/30 00:24:07;;;;;;;1.00;0.77;;;19.00;57.40;;;;;;5024663;28;20037;-63
2022/09/30 00:26:34;;;;;;;1.17;0.80;;;19.00;57.40;;;;;;5015217;28;20033;-63
2022/09/30 00:29:00;;;;;;;1.30;0.70;;;19.00;57.40;;;;;;5018737;28;20660;-63
2022/09/30 00:31:29;;;;;;;1.73;0.80;;;19.00;57.40;;;;;;5016712;28;20030;-63
2022/09/30 00:34:07;;;;;;;1.30;0.77;;;19.00;57.40;;;;;;5014239;28;20033;-63
2022/09/30 00:36:48;;;;;;;1.48;0.70;;;19.00;57.40;;;;;;5020730;28;20414;-62
2022/09/30 00:39:18;;;;;;;1.20;0.70;;;18.90;57.40;;;;;;5018587;28;20486;-63
2022/09/30 00:41:46;;;;;;;1.02;0.68;;;19.00;57.40;;;;;;5018911;28;20100;-63
2022/09/30 00:44:45;;;;;;;0.80;0.60;;;19.00;57.40;;;;;;5019186;28;20058;-62
2022/09/30 00:47:45;;;;;;;1.45;0.70;;;19.00;57.40;;;;;;5017206;28;20037;-62
2022/09/30 00:50:14;;;;;;;1.80;0.70;;;19.00;57.40;;;;;;5013859;28;20559;-62
2022/09/30 00:52:42;;;;;;;0.73;0.63;;;19.00;57.40;;;;;;5014037;28;20145;-63
2022/09/30 00:55:14;;;;;;;1.33;0.80;;;18.90;57.30;;;;;;5016364;28;20497;-63
2022/09/30 00:57:39;;;;;;;1.35;0.80;;;19.00;57.90;;;;;;5017438;28;20441;-63
2022/09/30 01:00:06;;;;;;;1.08;0.73;;;19.00;57.30;;;;;;5018395;28;20093;-63
2022/09/30 01:02:32;;;;;;;1.45;0.70;;;19.00;57.40;;;;;;5017050;28;20022;-63
2022/09/30 01:04:58;;;;;;;1.80;0.80;;;19.00;57.40;;;;;;5018353;28;20022;-63
2022/09/30 01:07:24;;;;;;;1.45;0.73;;;19.00;57.40;;;;;;5017325;28;20312;-63
2022/09/30 01:09:51;;;;;;;1.30;0.90;;;19.00;57.30;;;;;;5016623;28;20105;-62
2022/09/30 01:12:22;;;;;;;1.50;0.70;;;19.00;57.40;;;;;;5014610;28;20034;-62
2022/09/30 01:14:52;;;;;;;1.17;0.70;;;19.00;57.40;;;;;;5015711;28;20121;-63
2022/09/30 01:17:32;;;;;;;1.00;0.60;;;18.90;57.30;;;;;;5012679;28;20117;-63
2022/09/30 01:20:21;;;;;;;1.02;0.60;;;19.00;57.40;;;;;;5014077;28;20018;-62
2022/09/30 01:23:05;;;;;;;1.00;0.70;;;19.00;57.40;;;;;;5023452;28;20024;-62
2022/09/30 01:25:43;;;;;;;0.77;0.60;;;18.90;57.30;;;;;;5022935;28;20426;-63
2022/09/30 01:28:30;;;;;;;0.95;0.70;;;19.00;57.40;;;;;;5019980;28;20486;-63
2022/09/30 01:31:17;;;;;;;0.65;0.60;;;18.90;57.30;;;;;;5022073;28;20512;-63
2022/09/30 01:34:14;;;;;;;1.10;0.60;;;18.90;57.30;;;;;;5021769;28;20060;-63
2022/09/30 01:36:55;;;;;;;1.90;0.82;;;18.90;57.30;;;;;;5015596;28;20064;-63
2022/09/30 01:39:44;;;;;;;2.38;0.90;;;18.90;57.30;;;;;;5021187;28;20366;-62
2022/09/30 01:42:44;;;;;;;0.60;0.55;;;18.90;57.30;;;;;;5018952;28;20508;-63
2022/09/30 01:45:15;;;;;;;0.60;0.60;;;18.90;57.30;;;;;;5020716;28;20040;-63
2022/09/30 01:47:46;;;;;;;0.95;0.60;;;18.90;57.30;;;;;;5020834;28;20037;-63
2022/09/30 01:50:22;;;;;;;0.77;0.60;;;18.90;57.30;;;;;;5021282;28;20718;-63
2022/09/30 01:52:51;;;;;;;1.15;0.70;;;18.90;57.30;;;;;;5013510;28;20334;-63
2022/09/30 01:55:30;;;;;;;1.02;0.70;;;18.90;57.30;;;;;;5015441;28;20397;-63
2022/09/30 01:57:58;;;;;;;0.63;0.63;;;18.90;57.30;;;;;;5017749;28;20033;-63
2022/09/30 02:00:24;;;;;;;1.50;0.75;;;18.90;57.30;;;;;;5018705;28;20031;-63
2022/09/30 02:02:57;;;;;;;0.85;0.65;;;18.90;57.30;;;;;;5017832;28;20103;-62
2022/09/30 02:05:33;;;;;;;1.20;0.60;;;18.90;57.30;;;;;;5018213;28;20405;-62
2022/09/30 02:08:22;;;;;;;1.02;0.65;;;18.90;57.30;;;;;;5019143;28;20508;-62
2022/09/30 02:11:14;;;;;;;1.17;0.75;;;18.90;57.30;;;;;;5022157;28;20026;-62
2022/09/30 02:13:48;;;;;;;0.98;0.70;;;18.90;57.30;;;;;;5019545;28;20034;-62
2022/09/30 02:16:20;;;;;;;1.20;0.70;;;18.90;57.30;;;;;;5023638;28;20045;-63
2022/09/30 02:19:22;;;;;;;1.02;0.70;;;18.90;57.30;;;;;;5019125;28;20057;-62
2022/09/30 02:22:13;;;;;;;1.15;0.70;;;18.90;57.30;;;;;;5018250;28;20102;-63
2022/09/30 02:24:42;;;;;;;1.17;0.80;;;18.90;57.30;;;;;;5018502;28;20378;-63
2022/09/30 02:27:12;;;;;;;;;;;18.90;57.30;;;;;;5016982;28;20022;-62
2022/09/30 02:29:42;;;;;;;0.85;0.60;;;18.90;57.30;;;;;;5012686;28;20373;-62
2022/09/30 02:32:21;;;;;;;0.93;0.70;;;18.80;57.20;;;;;;5012846;28;20461;-62
2022/09/30 02:34:57;;;;;;;1.23;0.70;;;18.90;57.30;;;;;;5016408;28;20038;-63
2022/09/30 02:37:32;;;;;;;1.23;0.80;;;18.80;57.20;;;;;;5019968;28;20048;-62
2022/09/30 02:40:09;;;;;;;0.77;0.60;;;18.90;57.30;;;;;;5014479;28;20565;-62
2022/09/30 02:42:35;;;;;;;1.33;0.70;;;18.80;57.20;;;;;;5018753;28;20022;-62
2022/09/30 02:45:08;;;;;;;1.30;0.73;;;18.80;57.30;;;;;;5014795;28;20041;-62
2022/09/30 02:48:11;;;;;;;0.80;0.70;;;18.80;57.30;;;;;;5009119;28;20507;-62
2022/09/30 02:50:46;;;;;;;0.80;0.60;;;18.80;57.30;;;;;;5016336;28;20037;-62
2022/09/30 02:53:22;;;;;;;1.05;0.65;;;18.80;57.30;;;;;;5018830;28;20041;-62
2022/09/30 02:55:48;;;;;;;0.80;0.70;;;18.80;57.30;;;;;;5020306;28;20029;-62
2022/09/30 02:58:19;;;;;;;1.10;0.70;;;18.80;57.30;;;;;;5021321;28;20042;-62
2022/09/30 03:00:45;;;;;;;0.70;0.70;;;18.80;57.30;;;;;;5020412;28;20122;-62
2022/09/30 03:03:53;;;;;;;0.65;0.60;;;18.80;57.30;;;;;;5019557;28;20105;-62
2022/09/30 03:06:20;;;;;;;1.20;0.60;;;18.80;57.80;;;;;;4971149;28;20515;-62
2022/09/30 03:08:46;;;;;;;0.75;0.50;;;18.80;57.30;;;;;;4971113;28;20535;-62
2022/09/30 03:11:18;;;;;;;1.30;0.80;;;18.80;57.30;;;;;;4992034;28;20092;-64
2022/09/30 03:14:04;;;;;;;0.75;0.63;;;18.80;57.30;;;;;;5013048;28;20125;-64
2022/09/30 03:16:57;;;;;;;1.13;0.70;;;18.80;57.30;;;;;;5016450;28;20052;-63
2022/09/30 03:19:53;;;;;;;1.00;0.80;;;18.80;57.30;;;;;;5018801;28;20440;-64
2022/09/30 03:22:36;;;;;;;0.93;0.70;;;18.80;57.30;;;;;;5013396;28;20022;-64
2022/09/30 03:25:20;;;;;;;0.70;0.68;;;18.80;57.30;;;;;;5005988;28;20104;-64
2022/09/30 03:27:48;;;;;;;0.85;0.70;;;18.80;57.30;;;;;;5015051;28;20021;-62
2022/09/30 03:30:18;;;;;;;1.07;0.63;;;18.80;57.30;;;;;;5018522;28;20520;-62
2022/09/30 03:33:06;;;;;;;1.20;0.70;;;18.80;57.30;;;;;;5013610;28;20291;-62
2022/09/30 03:35:38;;;;;;;0.73;0.50;;;18.80;57.30;;;;;;5019623;28;20437;-62
2022/09/30 03:38:12;;;;;;;0.85;0.68;;;18.80;57.30;;;;;;5019413;28;20037;-62
2022/09/30 03:41:16;;;;;;;0.80;0.60;;;18.80;57.30;;;;;;5020524;28;20026;-62
2022/09/30 03:43:53;;;;;;;0.77;0.63;;;18.80;57.30;;;;;;5019565;28;20101;-63
2022/09/30 03:46:34;;;;;;;0.98;0.63;;;18.80;57.30;;;;;;5016004;28;20025;-63
2022/09/30 03:49:03;;;;;;;1.00;0.68;;;18.80;57.40;;;;;;5017740;28;20105;-62
2022/09/30 03:51:30;;;;;;;;;;;18.80;57.30;;;;;;5016847;28;20029;-62
2022/09/30 03:53:57;;;;;;;0.82;0.80;;;18.80;57.40;;;;;;5015685;28;19963;-62
2022/09/30 03:56:25;;;;;;;0.70;0.70;;;18.80;57.40;;;;;;5018385;28;20481;-62
2022/09/30 03:58:51;;;;;;;0.70;0.70;;;18.80;57.40;;;;;;5012656;28;20427;-62
2022/09/30 04:01:20;;;;;;;1.02;0.60;;;18.70;57.30;;;;;;5010906;28;20116;-62
2022/09/30 04:03:47;;;;;;;1.10;0.60;;;18.80;57.40;;;;;;5019574;28;20034;-63
2022/09/30 04:06:13;;;;;;;0.93;0.70;;;18.80;57.40;;;;;;5015718;28;20034;-62
2022/09/30 04:08:39;;;;;;;0.98;0.63;;;18.80;57.40;;;;;;5016523;28;20041;-62
2022/09/30 04:11:04;;;;;;;1.15;0.70;;;18.80;57.40;;;;;;5015723;28;20033;-62
2022/09/30 04:13:30;;;;;;;1.30;0.80;;;18.80;57.40;;;;;;5019371;28;20033;-62
2022/09/30 04:15:57;;;;;;;0.73;0.60;;;18.70;57.30;;;;;;5018901;28;20051;-62
2022/09/30 04:18:23;;;;;;;1.10;0.70;;;18.80;57.40;;;;;;5016951;28;20392;-62
2022/09/30 04:20:49;;;;;;;1.17;0.77;;;18.80;57.40;;;;;;5019583;28;20388;-62
2022/09/30 04:23:15;;;;;;;1.10;0.70;;;18.80;57.40;;;;;;5022264;28;20029;-62
2022/09/30 04:25:41;;;;;;;1.73;0.70;;;18.80;57.50;;;;;;5020760;28;20014;-62
2022/09/30 04:28:06;;;;;;;1.17;0.80;;;18.70;57.50;;;;;;5019144;28;20491;-62
2022/09/30 04:30:32;;;;;;;0.88;0.65;;;18.70;57.50;;;;;;5016951;28;20134;-62
2022/09/30 04:32:58;;;;;;;1.20;0.80;;;18.70;57.50;;;;;;5019566;28;20036;-62
2022/09/30 04:35:23;;;;;;;1.02;0.75;;;18.80;57.60;;;;;;5014801;28;20514;-62
2022/09/30 04:37:49;;;;;;;0.75;0.65;;;18.70;57.50;;;;;;5017712;28;20029;-62
2022/09/30 04:40:16;;;;;;;1.02;0.75;;;18.70;57.50;;;;;;5015427;28;20034;-62
2022/09/30 04:42:41;;;;;;;0.77;0.63;;;18.80;57.60;;;;;;5013310;28;20018;-62
2022/09/30 04:45:11;;;;;;;0.98;0.70;;;18.70;57.50;;;;;;5013221;28;20040;-62
2022/09/30 04:47:37;;;;;;;0.70;0.60;;;18.70;57.50;;;;;;5017093;28;20480;-62
2022/09/30 04:50:04;;;;;;;1.45;0.90;;;18.70;57.60;;;;;;5014112;28;20031;-62
2022/09/30 04:52:30;;;;;;;1.33;0.73;;;18.70;57.50;;;;;;5014841;28;20037;-62
2022/09/30 04:54:57;;;;;;;1.08;0.80;;;18.70;57.60;;;;;;5025022;28;20030;-62
2022/09/30 04:57:24;;;;;;;1.50;0.75;;;18.70;57.60;;;;;;5021095;28;20022;-62
2022/09/30 04:59:49;;;;;;;1.27;0.80;;;18.70;57.60;;;;;;5020497;28;20060;-62
2022/09/30 05:02:15;;;;;;;1.20;0.70;;;18.70;57.60;;;;;;5016562;28;20064;-62
2022/09/30 05:04:41;;;;;;;0.93;0.70;;;18.70;57.70;;;;;;5028182;28;20075;-62
2022/09/30 05:07:07;;;;;;;1.23;0.70;;;18.70;57.60;;;;;;5018540;28;20420;-62
2022/09/30 05:09:36;;;;;;;1.08;0.70;;;18.70;57.70;;;;;;5019880;28;20013;-62
2022/09/30 05:12:02;;;;;;;1.50;0.80;;;18.70;57.70;;;;;;5023003;28;20022;-62
2022/09/30 05:14:29;;;;;;;0.80;0.60;;;18.70;57.70;;;;;;5021855;28;20030;-62
2022/09/30 05:16:54;;;;;;;1.30;0.73;;;18.70;57.70;;;;;;5022267;28;20449;-62
2022/09/30 05:19:21;;;;;;;1.17;0.70;;;18.70;57.70;;;;;;5018589;28;20120;-62
2022/09/30 05:21:46;;;;;;;1.40;0.70;;;18.70;57.70;;;;;;5027451;28;20030;-62
2022/09/30 05:24:12;;;;;;;1.55;0.70;;;18.70;57.70;;;;;;5021399;28;20474;-62
2022/09/30 05:26:39;;;;;;;0.90;0.60;;;18.70;57.70;;;;;;5017954;28;20022;-62
2022/09/30 05:29:05;;;;;;;1.05;0.77;;;18.70;57.70;;;;;;5015413;28;20034;-62
2022/09/30 05:31:31;;;;;;;1.05;0.65;;;18.70;57.70;;;;;;5018580;28;20088;-62
2022/09/30 05:33:57;;;;;;;1.40;0.80;;;18.70;57.70;;;;;;5023886;28;20026;-62
2022/09/30 05:36:23;;;;;;;1.38;0.70;;;18.70;57.70;;;;;;5022377;28;20045;-62
2022/09/30 05:38:52;;;;;;;1.23;0.75;;;18.70;57.80;;;;;;5020606;28;20030;-62
2022/09/30 05:41:21;;;;;;;1.25;0.82;;;18.70;57.70;;;;;;5021755;28;20030;-62
2022/09/30 05:43:48;;;;;;;1.40;0.75;;;18.70;57.70;;;;;;5024453;28;20171;-62
2022/09/30 05:46:15;;;;;;;1.10;0.70;;;18.70;57.70;;;;;;5018559;28;20552;-62
2022/09/30 05:48:41;;;;;;;2.05;0.80;;;18.70;57.70;;;;;;5022567;28;20480;-62
2022/09/30 05:51:08;;;;;;;1.10;0.70;;;18.70;57.70;;;;;;5020063;28;20105;-62
2022/09/30 05:53:37;;;;;;;1.98;0.80;;;18.70;57.70;;;;;;5016637;28;20064;-62
2022/09/30 05:56:03;;;;;;;1.27;0.70;;;18.70;57.80;;;;;;5018701;28;20065;-62
2022/09/30 05:58:30;;;;;;;1.02;0.60;;;18.70;57.70;;;;;;5022506;28;20048;-62
2022/09/30 06:00:55;;;;;;;0.80;0.60;;;18.70;57.70;;;;;;5021157;28;20037;-62
2022/09/30 06:03:21;;;;;;;1.08;0.75;;;18.70;57.70;;;;;;5018974;28;20018;-62
2022/09/30 06:05:47;;;;;;;0.68;0.60;;;18.70;57.70;;;;;;5020316;28;20049;-62
2022/09/30 06:08:14;;;;;;;0.98;0.75;;;18.70;57.70;;;;;;5017556;28;20125;-62
2022/09/30 06:10:41;;;;;;;1.05;0.70;;;18.70;57.70;;;;;;5015339;28;20029;-62
2022/09/30 06:13:07;;;;;;;2.25;0.80;;;18.70;57.70;;;;;;5020772;28;20105;-62
2022/09/30 06:15:33;;;;;;;1.30;0.80;;;18.70;57.70;;;;;;5022705;28;20108;-62
2022/09/30 06:17:58;;;;;;;1.73;0.80;;;18.60;57.60;;;;;;5019860;28;20030;-62
2022/09/30 06:20:24;;;;;;;1.00;0.70;;;18.70;57.70;;;;;;5018716;28;20386;-62
2022/09/30 06:22:50;;;;;;;1.58;0.80;;;18.70;57.70;;;;;;5018424;28;20354;-62
2022/09/30 06:25:16;;;;;;;1.50;0.80;;;18.70;57.70;;;;;;5019644;28;20025;-62
2022/09/30 06:27:46;;;;;;;2.03;0.80;;;18.70;57.70;;;;;;5022538;28;20501;-62
2022/09/30 06:30:11;;;;;;;2.17;0.80;;;18.70;57.70;;;;;;5016098;28;20018;-62
2022/09/30 06:32:37;;;;;;;0.52;0.52;;;18.70;57.70;;;;;;5014899;28;20151;-62
2022/09/30 06:35:03;;;;;;;0.88;0.65;;;18.70;57.70;;;;;;5021757;28;21071;-62
2022/09/30 06:37:29;;;;;;;1.10;0.73;;;18.70;57.70;;;;;;5014148;28;20031;-62
2022/09/30 06:39:54;;;;;;;1.05;0.68;;;18.70;57.70;;;;;;5017094;28;20049;-62
2022/09/30 06:42:23;;;;;;;1.15;0.77;;;18.60;57.60;;;;;;5022115;28;20119;-62
2022/09/30 06:44:50;;;;;;;1.20;0.75;;;18.60;57.60;;;;;;5020549;28;20386;-62
2022/09/30 06:47:17;;;;;;;1.33;0.80;;;18.60;57.60;;;;;;5026186;28;20040;-62
2022/09/30 06:49:43;;;;;;;1.70;0.90;;;18.70;57.70;;;;;;5020149;28;20497;-62
2022/09/30 06:52:12;;;;;;;1.95;1.00;;;18.70;57.70;;;;;;5022809;28;20022;-62
2022/09/30 06:54:40;;;;;;;0.93;0.80;;;18.70;57.60;;;;;;5019563;28;20033;-62
2022/09/30 06:57:06;;;;;;;1.27;0.80;;;18.60;57.60;;;;;;5018064;28;20500;-62
2022/09/30 06:59:31;;;;;;;1.75;0.80;;;18.60;57.60;;;;;;5017544;28;20025;-62
2022/09/30 07:01:57;;;;;;;1.42;0.70;;;18.60;57.60;;;;;;5019087;28;20117;-62
2022/09/30 07:04:23;;;;;;;1.30;0.70;;;18.60;57.50;;;;;;5018532;28;20079;-62
2022/09/30 07:06:49;;;;;;;0.95;0.70;;;18.60;57.60;;;;;;5018336;28;20130;-62
2022/09/30 07:09:15;;;;;;;1.63;0.80;;;18.60;57.60;;;;;;5016746;28;20116;-62
2022/09/30 07:11:40;;;;;;;0.77;0.60;;;18.60;57.50;;;;;;5016590;28;20073;-62
2022/09/30 07:14:06;;;;;;;1.00;0.60;;;18.60;57.50;;;;;;5010499;28;20048;-62
2022/09/30 07:16:35;;;;;;;1.50;0.82;;;18.60;57.50;;;;;;5011451;28;20081;-62
2022/09/30 07:19:03;;;;;;;0.90;0.80;;;18.60;58.00;;;;;;5021144;28;20352;-62
2022/09/30 07:21:30;;;;;;;1.02;0.60;;;18.60;57.50;;;;;;5015579;28;20692;-62
2022/09/30 07:23:57;;;;;;;1.00;0.80;;;18.60;57.60;;;;;;5010930;28;20026;-62
2022/09/30 07:26:25;;;;;;;1.75;0.80;;;18.60;57.50;;;;;;5010547;28;20433;-62
2022/09/30 07:28:51;;;;;;;1.15;0.70;;;18.60;57.50;;;;;;5027929;28;20112;-62
2022/09/30 07:31:20;;;;;;;0.95;0.73;;;18.60;57.50;;;;;;5021077;28;20493;-62
2022/09/30 07:33:47;;;;;;;1.83;1.00;;;18.70;57.60;;;;;;5019845;28;20025;-62
2022/09/30 07:36:17;;;;;;;1.35;0.80;;;18.60;57.50;;;;;;5020953;28;20034;-62
2022/09/30 07:38:44;;;;;;;1.58;0.80;;;18.60;57.50;;;;;;5018246;28;20036;-62
2022/09/30 07:41:13;;;;;;;1.92;0.80;;;18.60;57.50;;;;;;5016025;28;20032;-62
2022/09/30 07:43:41;;;;;;;1.10;0.75;;;18.60;57.50;;;;;;5020391;28;20375;-62
2022/09/30 07:46:10;;;;;;;1.20;0.88;;;18.60;57.50;;;;;;5020613;28;20048;-62
2022/09/30 07:48:50;;;;;;;1.30;0.90;;;18.60;57.50;;;;;;5016012;28;20034;-62
2022/09/30 07:51:19;;;;;;;;;;;18.60;57.50;;;;;;5009712;28;20512;-62
2022/09/30 07:53:48;;;;;;;1.50;0.98;;;18.60;57.50;;;;;;5018390;28;19913;-62
2022/09/30 07:56:14;;;;;;;1.75;1.00;;;18.60;57.50;;;;;;5018510;28;20413;-62
2022/09/30 07:58:40;;;;;;;1.83;0.80;;;18.60;57.50;;;;;;5017317;28;20091;-63
2022/09/30 08:01:06;;;;;;;1.02;0.75;;;18.60;57.50;;;;;;5014119;28;20037;-63
2022/09/30 08:03:38;;;;;;;1.20;0.80;;;18.60;57.50;;;;;;5017085;28;20082;-62
2022/09/30 08:06:10;;;;;;;1.17;0.70;;;18.60;57.50;;;;;;5010375;28;20968;-62
2022/09/30 08:08:36;;;;;;;1.20;0.80;;;18.60;58.10;;;;;;5015097;28;20060;-62
2022/09/30 08:11:03;;;;;;;1.58;0.95;;;18.60;57.50;;;;;;5020842;28;20045;-62
2022/09/30 08:13:29;;;;;;;1.55;0.80;;;18.60;57.50;;;;;;5017254;28;20038;-62
2022/09/30 08:15:55;;;;;;;1.50;0.80;;;18.60;57.50;;;;;;5019935;28;20042;-62
2022/09/30 08:18:21;;;;;;;1.42;0.90;;;18.60;57.60;;;;;;5019313;28;20091;-62
2022/09/30 08:20:46;;;;;;;1.58;0.70;;;18.60;57.50;;;;;;5018268;28;20028;-62
2022/09/30 08:23:12;;;;;;;1.13;0.75;;;18.60;57.60;;;;;;5019250;28;20076;-62
2022/09/30 08:25:37;;;;;;;1.17;0.90;;;18.60;57.50;;;;;;5014771;28;20022;-62
2022/09/30 08:28:03;;;;;;;0.90;0.68;;;18.60;57.50;;;;;;5014864;28;20040;-62
2022/09/30 08:30:29;;;;;;;1.50;0.90;;;18.60;57.60;;;;;;5016930;28;20462;-62
2022/09/30 08:32:56;;;;;;;1.20;0.93;;;18.60;57.50;;;;;;5014695;28;20077;-62
2022/09/30 08:35:22;;;;;;;0.73;0.65;;;18.60;57.50;;;;;;5019896;28;20037;-62
2022/09/30 08:37:50;;;;;;;1.33;0.80;;;18.60;57.50;;;;;;5014428;28;20342;-62
2022/09/30 08:40:25;;;;;;;1.45;0.77;;;18.60;57.60;;;;;;5015554;28;20044;-62
2022/09/30 08:43:35;;;;;;;1.65;0.80;;;18.60;57.60;;;;;;5010964;28;20033;-63
2022/09/30 08:46:42;;;;;;;1.80;0.90;;;18.60;57.90;;;;;;5006590;28;20124;-62
2022/09/30 08:49:11;;;;;;;1.45;0.80;;;18.70;58.60;;;;;;5014882;28;20037;-62
2022/09/30 08:51:47;;;;;;;2.33;1.10;;;18.80;58.50;;;;;;5020546;28;20540;-62
2022/09/30 08:54:16;;;;;;;2.05;1.10;;;18.90;58.20;;;;;;5019286;28;20017;-62
2022/09/30 08:56:43;;;;;;;;;;;19.00;58.00;;;;;;5020042;28;20024;-63
2022/09/30 08:59:34;;;;;;;2.40;1.20;;;19.10;57.80;;;;;;5020817;28;19909;-63
2022/09/30 09:02:17;;;;;;;1.85;1.00;;;19.30;57.70;;;;;;5018310;28;20559;-63
2022/09/30 09:04:44;;;;;;;1.60;1.00;;;19.40;57.40;;;;;;5017614;28;20030;-63
2022/09/30 09:07:30;;;;;;;2.17;0.90;;;19.50;57.00;;;;;;5017480;28;20038;-63
2022/09/30 09:10:17;;;;;;;1.48;0.90;;;19.50;57.10;;;;;;5015484;28;20027;-64
2022/09/30 09:12:55;;;;;;;2.28;1.00;;;19.40;57.00;;;;;;5018628;28;20025;-63
2022/09/30 09:15:52;;;;;;;2.10;1.00;;;19.40;56.90;;;;;;5018347;28;20109;-63
2022/09/30 09:18:45;;;;;;;2.28;1.10;;;19.50;56.90;;;;;;5012927;28;20048;-62
2022/09/30 09:21:21;;;;;;;1.60;1.00;;;19.50;56.90;;;;;;5009316;28;20457;-62
2022/09/30 09:23:50;;;;;;;1.48;1.00;;;19.50;56.90;;;;;;5014490;28;20109;-63
2022/09/30 09:26:16;;;;;;;2.00;1.20;;;19.50;56.80;;;;;;5018477;28;20029;-63
2022/09/30 09:29:19;;;;;;;2.15;1.27;;;19.50;56.70;;;;;;5014609;28;20030;-63
2022/09/30 09:31:47;;;;;;;1.80;1.00;;;19.50;56.70;;;;;;5017990;28;20036;-63
2022/09/30 09:34:13;;;;;;;1.75;1.15;;;19.50;56.70;;;;;;5018366;28;20378;-63
2022/09/30 09:37:08;;;;;;;1.98;1.20;;;19.50;56.70;;;;;;5018444;28;20029;-63
2022/09/30 09:39:47;;;;;;;2.45;1.13;;;19.60;56.70;;;;;;5021692;28;20037;-63
2022/09/30 09:42:25;;;;;;;2.20;1.20;;;19.60;56.70;;;;;;5020332;28;20509;-63
2022/09/30 09:45:09;;;;;;;2.20;1.30;;;19.60;56.60;;;;;;5017746;28;20068;-63
2022/09/30 09:47:34;;;;;;;2.58;1.10;;;19.60;56.70;;;;;;5020129;28;20104;-63
2022/09/30 09:50:03;;;;;;;2.03;1.10;;;19.60;56.70;;;;;;5021763;28;20038;-63
2022/09/30 09:52:44;;;;;;;2.43;1.33;;;19.60;56.60;;;;;;5019967;28;20119;-63
2022/09/30 09:55:11;;;;;;;2.65;1.40;;;19.60;56.90;;;;;;5017619;28;20030;-63
2022/09/30 09:57:38;;;;;;;2.92;1.45;;;19.70;56.80;;;;;;5018036;28;20120;-63
2022/09/30 10:03:20;;;;;;;2.17;1.38;;;19.90;56.50;;;;;;5016344;28;20041;-63
2022/09/30 10:06:06;;;;;;;2.10;1.20;;;20.00;56.30;;;;;;5018696;28;20144;-63
2022/09/30 10:08:38;;;;;;;2.55;1.35;;;20.10;56.10;;;;;;5021486;28;20065;-63
2022/09/30 10:11:19;;;;;;;2.80;1.50;;;20.20;56.00;;;;;;5021222;28;20025;-62
2022/09/30 10:13:45;;;;;;;2.42;1.38;;;20.30;55.80;;;;;;5019987;28;20041;-62
2022/09/30 10:16:36;;;;;;;3.15;1.50;;;20.40;55.60;;;;;;5020703;28;20404;-62
2022/09/30 10:19:20;;;;;;;2.33;1.40;;;20.50;55.40;;;;;;5017692;28;20041;-62
2022/09/30 10:21:46;;;;;;;2.90;1.40;;;20.60;55.20;;;;;;5017581;28;20025;-63
2022/09/30 10:24:29;;;;;;;2.25;1.30;;;20.70;55.10;;;;;;5014484;28;20018;-62
2022/09/30 10:26:55;;;;;;;2.95;1.80;;;20.80;54.80;;;;;;5019460;28;20060;-62
2022/09/30 10:29:32;;;;;;;2.58;1.45;;;20.90;54.40;;;;;;5021611;28;20038;-63
2022/09/30 10:32:01;;;;;;;3.80;1.52;;;20.90;54.40;;;;;;5017261;28;20419;-63
2022/09/30 10:34:38;;;;;;;3.42;1.55;;;20.90;54.40;;;;;;5025706;28;20497;-62
2022/09/30 10:37:15;;;;;;;2.47;1.48;;;20.90;54.30;;;;;;5019486;28;20041;-62
2022/09/30 10:39:43;;;;;;;2.45;1.50;;;20.90;54.20;;;;;;5020129;28;20061;-62
2022/09/30 10:42:15;;;;;;;2.83;1.50;;;20.90;54.30;;;;;;5018506;28;20033;-62
2022/09/30 10:45:08;;;;;;;3.08;1.83;;;20.90;54.40;;;;;;5010885;28;20025;-62
2022/09/30 10:47:42;;;;;;;3.00;1.80;;;20.90;54.40;;;;;;5039120;28;20042;-62
2022/09/30 10:50:19;;;;;;;2.63;1.60;;;20.90;54.40;;;;;;5022540;28;20451;-62
2022/09/30 10:52:58;;;;;;;2.90;1.77;;;20.90;54.40;;;;;;5021392;28;20034;-62
2022/09/30 10:55:40;;;;;;;5.72;1.60;;;20.80;54.40;;;;;;5017455;28;20037;-62
2022/09/30 10:58:36;;;;;;;3.13;1.60;;;20.80;54.40;;;;;;5017826;28;20049;-62
2022/09/30 11:01:23;;;;;;;2.90;1.50;;;20.80;54.50;;;;;;5026686;28;20030;-62
2022/09/30 11:04:11;;;;;;;2.85;1.67;;;20.80;54.50;;;;;;5035102;28;20033;-62
2022/09/30 11:06:39;;;;;;;2.42;1.50;;;20.80;54.60;;;;;;5033757;28;20133;-62
2022/09/30 11:09:54;;;;;;;2.58;1.60;;;20.70;54.50;;;;;;5037832;28;20082;-62
2022/09/30 11:12:23;;;;;;;2.50;1.60;;;20.70;54.60;;;;;;4999727;28;20030;-62
2022/09/30 11:15:17;;;;;;;3.50;1.80;;;20.70;54.70;;;;;;4998407;28;20668;-63
2022/09/30 11:17:58;;;;;;;3.15;1.50;;;20.70;54.70;;;;;;5031782;28;20068;-63
2022/09/30 11:20:33;;;;;;;2.40;1.30;;;20.70;54.80;;;;;;5039439;28;20021;-62
2022/09/30 11:23:29;;;;;;;2.30;1.45;;;20.70;54.80;;;;;;5052421;28;20030;-62
2022/09/30 11:26:03;;;;;;;2.40;1.40;;;20.70;54.90;;;;;;5051621;28;20021;-62
2022/09/30 11:28:40;;;;;;;2.53;1.40;;;20.60;54.80;;;;;;5039316;28;20024;-63
2022/09/30 11:31:35;;;;;;;3.28;1.50;;;20.70;54.90;;;;;;5039931;28;20033;-63
2022/09/30 11:34:31;;;;;;;3.03;1.60;;;20.60;54.90;;;;;;5040378;28;20029;-62
2022/09/30 11:37:04;;;;;;;3.53;1.50;;;20.60;54.90;;;;;;5039121;28;20083;-62
2022/09/30 11:39:47;;;;;;;3.17;1.50;;;20.60;55.00;;;;;;5050359;28;20183;-63
2022/09/30 11:42:24;;;;;;;3.28;1.70;;;20.60;55.00;;;;;;5033494;28;20028;-62
2022/09/30 11:45:08;;;;;;;3.08;1.67;;;20.60;55.10;;;;;;5034429;28;20382;-62
2022/09/30 11:48:01;;;;;;;4.88;1.80;;;20.60;55.10;;;;;;5037226;28;20107;-62
2022/09/30 11:50:49;;;;;;;2.75;1.75;;;20.60;55.10;;;;;;5032217;28;20028;-62
2022/09/30 11:53:24;;;;;;;3.25;1.80;;;20.60;55.10;;;;;;5027674;28;20042;-62
2022/09/30 11:56:31;;;;;;;4.80;1.90;;;20.60;55.10;;;;;;5034829;28;20020;-62
2022/09/30 11:59:01;;;;;;;5.22;2.13;;;20.50;55.10;;;;;;5034782;28;20052;-62
2022/09/30 12:01:32;;;;;;;4.35;2.00;;;20.50;55.10;;;;;;5037142;28;20029;-63
2022/09/30 12:04:04;;;;;;;4.35;2.08;;;20.50;55.20;;;;;;5037291;28;20029;-63
2022/09/30 12:06:38;;;;;;;3.35;2.05;;;20.50;55.70;;;;;;5037659;28;20053;-63
2022/09/30 12:09:16;;;;;;;2.85;1.70;;;20.50;55.30;;;;;;5037984;28;20512;-63
2022/09/30 12:11:49;;;;;;;3.45;1.70;;;20.40;55.20;;;;;;5036862;28;20543;-63
2022/09/30 12:14:43;;;;;;;5.35;1.80;;;20.50;55.30;;;;;;5036567;28;20032;-63
2022/09/30 12:17:43;;;;;;;4.20;1.88;;;20.40;55.40;;;;;;5017396;28;20044;-63
2022/09/30 12:20:29;;;;;;;5.18;2.10;;;20.40;55.40;;;;;;5017965;28;20054;-63
2022/09/30 12:23:38;;;;;;;3.80;1.70;;;20.40;55.50;;;;;;5037075;28;20095;-63
2022/09/30 12:26:05;;;;;;;3.00;1.60;;;20.40;55.50;;;;;;5033564;28;20496;-63
2022/09/30 12:32:10;;;;;;;4.03;1.75;;;20.30;55.60;;;;;;5035885;28;20033;-63
2022/09/30 12:35:00;;;;;;;4.43;1.90;;;20.30;55.70;;;;;;5029583;28;20030;-63
2022/09/30 12:37:35;;;;;;;4.03;2.03;;;20.30;55.70;;;;;;5035313;28;20032;-63
2022/09/30 12:40:24;;;;;;;4.10;1.70;;;20.30;55.80;;;;;;5039170;28;20445;-63
2022/09/30 12:43:09;;;;;;;4.97;1.92;;;20.20;55.80;;;;;;5033332;28;20017;-63
2022/09/30 12:45:34;;;;;;;4.57;1.90;;;20.20;55.80;;;;;;5023880;28;20489;-63
2022/09/30 12:48:07;;;;;;;3.53;1.77;;;20.30;55.90;;;;;;5035004;28;20033;-63
2022/09/30 12:50:49;;;;;;;4.07;1.70;;;20.20;55.90;;;;;;5038497;28;20111;-62
2022/09/30 12:53:23;;;;;;;3.88;1.70;;;20.20;55.90;;;;;;5034425;28;20522;-62
2022/09/30 12:55:50;;;;;;;3.92;2.03;;;20.20;56.00;;;;;;5034620;28;20239;-62
2022/09/30 12:58:23;;;;;;;4.18;1.83;;;20.20;56.00;;;;;;5036103;28;20477;-62
2022/09/30 13:01:11;;;;;;;4.40;1.75;;;20.20;56.00;;;;;;5033829;28;20026;-63
2022/09/30 13:03:49;;;;;;;3.70;1.67;;;20.20;56.00;;;;;;5037081;28;20032;-63
2022/09/30 13:06:17;;;;;;;3.40;1.77;;;20.20;56.00;;;;;;5035779;28;20040;-63
2022/09/30 13:09:06;;;;;;;4.00;1.90;;;20.20;56.00;;;;;;5031426;28;20025;-63
2022/09/30 13:11:40;;;;;;;4.38;1.88;;;20.20;56.00;;;;;;5029629;28;20140;-63
2022/09/30 13:14:25;;;;;;;4.20;2.00;;;20.20;56.10;;;;;;5036351;28;20484;-63
2022/09/30 13:17:23;;;;;;;3.80;1.88;;;20.20;56.10;;;;;;5040819;28;20060;-63
2022/09/30 13:19:51;;;;;;;3.28;1.40;;;20.10;56.10;;;;;;5034951;28;20043;-62
2022/09/30 13:22:17;;;;;;;3.95;1.58;;;20.20;56.20;;;;;;5033714;28;20480;-62
2022/09/30 13:27:32;;;;;;;4.20;1.80;;;20.10;56.20;;;;;;5042383;28;20031;-62
2022/09/30 13:30:00;;;;;;;2.95;1.63;;;20.20;56.30;;;;;;5041857;28;20052;-63
2022/09/30 13:32:36;;;;;;;3.00;1.55;;;20.20;56.30;;;;;;5041537;28;20397;-63